createdAt,value
2022-12-09T00:00:08.148Z,26.73
2022-12-09T00:02:35.523Z,25.63
2022-12-09T00:05:02.497Z,22.50
2022-12-09T00:07:29.530Z,20.53
2022-12-09T00:09:56.200Z,19.70
2022-12-09T00:12:23.253Z,16.40
2022-12-09T00:14:49.842Z,14.90
2022-12-09T00:17:16.801Z,14.17
2022-12-09T00:19:43.554Z,13.40
2022-12-09T00:22:10.205Z,11.73
2022-12-09T00:24:36.885Z,11.90
2022-12-09T00:27:03.802Z,12.33
2022-12-09T00:29:30.691Z,12.07
2022-12-09T00:31:57.584Z,12.20
2022-12-09T00:34:24.338Z,11.53
2022-12-09T00:36:51.037Z,12.30
2022-12-09T00:39:17.957Z,12.80
2022-12-09T00:41:44.839Z,13.13
2022-12-09T00:44:12.300Z,12.80
2022-12-09T00:46:39.159Z,13.33
2022-12-09T00:49:06.457Z,12.27
2022-12-09T00:51:33.543Z,11.47
2022-12-09T00:54:01.390Z,13.43
2022-12-09T00:56:29.871Z,13.73
2022-12-09T00:58:58.753Z,13.37
2022-12-09T01:01:26.829Z,14.23
2022-12-09T01:03:54.316Z,12.63
2022-12-09T01:06:23.915Z,13.07
2022-12-09T01:08:51.478Z,13.60
2022-12-09T01:11:21.573Z,12.90
2022-12-09T01:13:50.344Z,11.90
2022-12-09T01:16:20.522Z,10.73
2022-12-09T01:18:49.280Z,10.83
2022-12-09T01:21:16.245Z,11.60
2022-12-09T01:23:43.181Z,12.03
2022-12-09T01:26:10.585Z,11.63
2022-12-09T01:28:39.626Z,10.90
2022-12-09T01:31:15.534Z,11.23
2022-12-09T01:33:43.567Z,11.30
2022-12-09T01:36:14.871Z,10.77
2022-12-09T01:38:41.939Z,12.53
2022-12-09T01:41:08.789Z,11.90
2022-12-09T01:43:35.738Z,11.50
2022-12-09T01:46:02.754Z,11.13
2022-12-09T01:48:33.764Z,12.83
2022-12-09T01:51:20.016Z,12.67
2022-12-09T01:53:50.765Z,12.27
2022-12-09T01:56:28.947Z,12.57
2022-12-09T01:59:02.425Z,12.73
2022-12-09T02:01:29.505Z,12.13
2022-12-09T02:03:56.881Z,12.03
2022-12-09T02:06:23.889Z,12.17
2022-12-09T02:08:51.520Z,11.80
2022-12-09T02:11:27.179Z,11.57
2022-12-09T02:14:31.700Z,12.30
2022-12-09T02:17:36.073Z,11.83
2022-12-09T02:20:17.341Z,11.13
2022-12-09T02:22:48.123Z,13.23
2022-12-09T02:25:27.782Z,12.10
2022-12-09T02:28:17.132Z,12.07
2022-12-09T02:31:03.957Z,14.47
2022-12-09T02:34:07.977Z,13.30
2022-12-09T02:36:46.580Z,12.77
2022-12-09T02:39:13.411Z,11.60
2022-12-09T02:41:46.886Z,12.23
2022-12-09T02:44:17.233Z,11.30
2022-12-09T02:46:46.472Z,11.87
2022-12-09T02:49:14.718Z,10.70
2022-12-09T02:51:44.228Z,11.13
2022-12-09T02:54:16.446Z,11.77
2022-12-09T02:57:07.262Z,12.67
2022-12-09T02:59:33.966Z,11.93
2022-12-09T03:02:06.817Z,12.37
2022-12-09T03:04:33.836Z,11.43
2022-12-09T03:07:26.768Z,13.00
2022-12-09T03:10:04.684Z,13.10
2022-12-09T03:12:33.678Z,13.20
2022-12-09T03:15:05.915Z,13.10
2022-12-09T03:17:36.999Z,13.13
2022-12-09T03:20:09.114Z,13.20
2022-12-09T03:22:38.725Z,12.73
2022-12-09T03:25:47.053Z,13.47
2022-12-09T03:28:26.796Z,13.70
2022-12-09T03:30:56.270Z,13.80
2022-12-09T03:33:25.152Z,13.40
2022-12-09T03:35:56.179Z,13.77
2022-12-09T03:38:27.083Z,14.40
2022-12-09T03:41:23.719Z,14.53
2022-12-09T03:44:04.760Z,14.43
2022-12-09T03:46:32.180Z,14.00
2022-12-09T03:48:59.764Z,13.67
2022-12-09T03:51:34.705Z,13.93
2022-12-09T03:54:09.901Z,13.87
2022-12-09T03:56:41.753Z,13.67
2022-12-09T03:59:14.423Z,13.70
2022-12-09T04:01:44.533Z,12.40
2022-12-09T04:04:13.880Z,12.23
2022-12-09T04:06:40.755Z,12.27
2022-12-09T04:09:08.344Z,12.13
2022-12-09T04:11:35.591Z,12.60
2022-12-09T04:14:02.515Z,12.30
2022-12-09T04:16:29.545Z,12.73
2022-12-09T04:18:56.903Z,12.93
2022-12-09T04:21:23.985Z,11.93
2022-12-09T04:23:50.876Z,13.40
2022-12-09T04:26:21.204Z,12.30
2022-12-09T04:28:48.714Z,11.53
2022-12-09T04:31:18.161Z,12.60
2022-12-09T04:33:45.812Z,10.93
2022-12-09T04:36:15.315Z,11.47
2022-12-09T04:38:42.958Z,10.33
2022-12-09T04:41:10.409Z,11.47
2022-12-09T04:43:37.196Z,11.50
2022-12-09T04:46:10.481Z,10.67
2022-12-09T04:48:37.554Z,10.70
2022-12-09T04:51:04.457Z,9.67
2022-12-09T04:53:31.128Z,10.43
2022-12-09T04:56:14.838Z,10.03
2022-12-09T04:58:42.338Z,11.27
2022-12-09T05:01:11.355Z,11.10
2022-12-09T05:03:38.906Z,11.10
2022-12-09T05:06:08.172Z,10.70
2022-12-09T05:08:35.843Z,11.43
2022-12-09T05:11:03.484Z,11.47
2022-12-09T05:13:31.619Z,9.90
2022-12-09T05:16:02.889Z,11.00
2022-12-09T05:18:30.276Z,10.07
2022-12-09T05:20:57.398Z,11.73
2022-12-09T05:23:24.370Z,11.47
2022-12-09T05:25:51.827Z,10.53
2022-12-09T05:28:19.585Z,10.40
2022-12-09T05:30:46.609Z,10.47
2022-12-09T05:33:13.793Z,12.20
2022-12-09T05:35:52.465Z,12.47
2022-12-09T05:38:20.287Z,11.43
2022-12-09T05:40:47.265Z,12.03
2022-12-09T05:43:14.450Z,12.43
2022-12-09T05:45:41.587Z,14.03
2022-12-09T05:48:08.526Z,12.00
2022-12-09T05:50:36.620Z,11.70
2022-12-09T05:53:03.876Z,12.97
2022-12-09T05:55:36.588Z,13.23
2022-12-09T05:58:03.405Z,12.37
2022-12-09T06:00:30.353Z,12.10
2022-12-09T06:02:57.156Z,12.20
2022-12-09T06:05:24.508Z,12.47
2022-12-09T06:07:51.533Z,12.63
2022-12-09T06:10:18.970Z,12.23
2022-12-09T06:12:48.470Z,12.27
2022-12-09T06:15:20.428Z,11.40
2022-12-09T06:17:48.872Z,11.10
2022-12-09T06:20:19.407Z,12.70
2022-12-09T06:22:46.346Z,12.07
2022-12-09T06:25:13.457Z,12.47
2022-12-09T06:27:40.620Z,11.77
2022-12-09T06:30:08.347Z,12.17
2022-12-09T06:32:39.051Z,11.50
2022-12-09T06:35:07.619Z,10.83
2022-12-09T06:37:35.078Z,10.50
2022-12-09T06:40:05.400Z,10.33
2022-12-09T06:42:32.548Z,9.47
2022-12-09T06:44:59.439Z,14.43
2022-12-09T06:47:26.509Z,14.70
2022-12-09T06:49:53.448Z,12.43
2022-12-09T06:52:20.929Z,11.00
2022-12-09T06:54:48.131Z,10.83
2022-12-09T06:57:15.031Z,10.80
2022-12-09T06:59:42.200Z,11.20
2022-12-09T07:02:10.227Z,11.67
2022-12-09T07:04:37.756Z,10.33
2022-12-09T07:07:05.540Z,11.23
2022-12-09T07:09:33.173Z,10.87
2022-12-09T07:12:00.474Z,10.50
2022-12-09T07:14:27.519Z,11.73
2022-12-09T07:16:54.543Z,13.17
2022-12-09T07:19:23.277Z,12.10
2022-12-09T07:21:51.621Z,11.17
2022-12-09T07:24:20.167Z,12.17
2022-12-09T07:26:47.680Z,12.70
2022-12-09T07:29:14.744Z,12.07
2022-12-09T07:31:42.205Z,12.80
2022-12-09T07:34:11.232Z,11.83
2022-12-09T07:36:38.718Z,13.17
2022-12-09T07:39:17.809Z,11.83
2022-12-09T07:41:45.415Z,12.00
2022-12-09T07:44:12.766Z,11.60
2022-12-09T07:46:40.166Z,12.17
2022-12-09T07:49:07.584Z,11.73
2022-12-09T07:51:34.970Z,13.07
2022-12-09T07:54:01.832Z,11.73
2022-12-09T07:56:29.313Z,12.23
2022-12-09T07:58:57.374Z,12.03
2022-12-09T08:01:27.686Z,12.67
2022-12-09T08:03:55.428Z,14.40
2022-12-09T08:06:25.940Z,13.30
2022-12-09T08:08:53.230Z,12.57
2022-12-09T08:11:23.675Z,12.33
2022-12-09T08:13:51.753Z,11.60
2022-12-09T08:16:21.377Z,11.80
2022-12-09T08:18:49.606Z,11.80
2022-12-09T08:21:21.250Z,10.73
2022-12-09T08:23:49.406Z,11.50
2022-12-09T08:26:19.929Z,11.13
2022-12-09T08:28:47.767Z,10.63
2022-12-09T08:31:38.802Z,11.03
2022-12-09T08:34:08.017Z,10.47
2022-12-09T08:36:35.106Z,11.23
2022-12-09T08:39:02.282Z,10.93
2022-12-09T08:41:36.318Z,11.77
2022-12-09T08:44:11.439Z,12.77
2022-12-09T08:46:40.977Z,12.33
2022-12-09T08:49:08.472Z,12.23
2022-12-09T08:51:35.799Z,12.53
2022-12-09T08:54:04.266Z,10.63
2022-12-09T08:56:31.391Z,11.20
2022-12-09T08:58:58.179Z,11.00
2022-12-09T09:01:32.305Z,11.27
2022-12-09T09:04:05.416Z,12.23
2022-12-09T09:06:33.225Z,11.33
2022-12-09T09:09:00.292Z,12.20
2022-12-09T09:11:27.830Z,11.60
2022-12-09T09:13:54.749Z,11.67
2022-12-09T09:16:24.157Z,11.60
2022-12-09T09:18:52.554Z,11.00
2022-12-09T09:21:22.669Z,12.00
2022-12-09T09:23:50.379Z,11.50
2022-12-09T09:26:20.210Z,11.27
2022-12-09T09:28:47.326Z,12.03
2022-12-09T09:31:17.648Z,11.30
2022-12-09T09:33:45.253Z,10.97
2022-12-09T09:36:21.825Z,10.23
2022-12-09T09:38:50.768Z,10.47
2022-12-09T09:41:25.534Z,11.13
2022-12-09T09:43:55.248Z,10.60
2022-12-09T09:46:35.008Z,10.50
2022-12-09T09:49:05.963Z,10.57
2022-12-09T09:51:34.498Z,10.60
2022-12-09T09:54:06.653Z,11.13
2022-12-09T09:56:41.108Z,10.50
2022-12-09T09:59:32.856Z,9.90
2022-12-09T10:02:00.346Z,10.60
2022-12-09T10:04:43.443Z,9.47
2022-12-09T10:07:20.095Z,10.30
2022-12-09T10:10:13.525Z,11.17
2022-12-09T10:13:00.597Z,11.43
2022-12-09T10:15:41.911Z,11.40
2022-12-09T10:18:19.298Z,11.73
2022-12-09T10:20:46.922Z,12.80
2022-12-09T10:23:16.364Z,9.33
2022-12-09T10:25:56.779Z,11.17
2022-12-09T10:28:29.989Z,10.00
2022-12-09T10:30:57.346Z,9.70
2022-12-09T10:33:35.362Z,9.93
2022-12-09T10:36:03.658Z,9.73
2022-12-09T10:38:31.701Z,10.53
2022-12-09T10:41:09.825Z,10.90
2022-12-09T10:43:39.599Z,10.27
2022-12-09T10:46:18.064Z,10.87
2022-12-09T10:48:46.426Z,10.63
2022-12-09T10:51:15.789Z,10.17
2022-12-09T10:53:48.688Z,10.70
2022-12-09T10:56:22.709Z,9.57
2022-12-09T10:58:49.575Z,9.00
2022-12-09T11:01:17.413Z,9.50
2022-12-09T11:03:53.643Z,9.20
2022-12-09T11:06:23.697Z,9.50
2022-12-09T11:09:00.124Z,9.90
2022-12-09T11:11:49.605Z,9.67
2022-12-09T11:14:24.906Z,10.33
2022-12-09T11:16:54.477Z,9.47
2022-12-09T11:19:34.287Z,10.30
2022-12-09T11:22:28.367Z,9.53
2022-12-09T11:25:06.141Z,8.30
2022-12-09T11:27:34.879Z,9.27
2022-12-09T11:30:14.345Z,8.50
2022-12-09T11:33:00.849Z,9.30
2022-12-09T11:35:43.717Z,9.67
2022-12-09T11:38:35.715Z,8.40
2022-12-09T11:41:13.117Z,7.90
2022-12-09T11:43:56.386Z,8.17
2022-12-09T11:46:29.294Z,8.23
2022-12-09T11:48:59.364Z,8.47
2022-12-09T11:51:31.024Z,8.33
2022-12-09T11:54:10.827Z,8.43
2022-12-09T11:56:39.941Z,8.70
2022-12-09T11:59:13.356Z,8.47
2022-12-09T12:01:56.289Z,8.37
2022-12-09T12:04:30.882Z,10.80
2022-12-09T12:07:24.444Z,9.23
2022-12-09T12:09:55.114Z,8.47
2022-12-09T12:12:54.533Z,8.60
2022-12-09T12:15:39.439Z,8.90
2022-12-09T12:18:14.507Z,11.00
2022-12-09T12:20:41.043Z,11.70
2022-12-09T12:23:46.349Z,15.17
2022-12-09T12:26:24.881Z,7.87
2022-12-09T12:28:59.088Z,7.80
2022-12-09T12:31:55.740Z,7.50
2022-12-09T12:34:27.306Z,7.30
2022-12-09T12:36:58.728Z,12.27
2022-12-09T12:39:47.091Z,8.93
2022-12-09T12:42:23.100Z,7.40
2022-12-09T12:45:22.053Z,6.10
2022-12-09T12:48:07.536Z,7.13
2022-12-09T12:50:46.864Z,6.73
2022-12-09T12:53:31.522Z,6.50
2022-12-09T12:56:07.365Z,6.10
2022-12-09T12:58:53.012Z,6.73
2022-12-09T13:01:30.516Z,6.87
2022-12-09T13:04:22.693Z,7.27
2022-12-09T13:06:55.177Z,7.50
2022-12-09T13:09:33.335Z,6.03
2022-12-09T13:12:07.303Z,7.07
2022-12-09T13:14:52.204Z,7.30
2022-12-09T13:17:25.348Z,6.33
2022-12-09T13:19:56.072Z,6.43
2022-12-09T13:22:29.707Z,7.63
2022-12-09T13:25:25.790Z,8.53
2022-12-09T13:28:04.012Z,9.43
2022-12-09T13:30:53.850Z,7.00
2022-12-09T13:33:52.802Z,8.03
2022-12-09T13:36:37.818Z,7.13
2022-12-09T13:39:05.284Z,9.70
2022-12-09T13:41:51.824Z,7.23
2022-12-09T13:44:19.424Z,8.03
2022-12-09T13:46:46.133Z,6.90
2022-12-09T13:49:19.936Z,11.97
2022-12-09T13:51:51.529Z,7.43
2022-12-09T13:54:21.072Z,9.57
2022-12-09T13:57:06.880Z,7.00
2022-12-09T13:59:42.532Z,7.00
2022-12-09T14:02:14.625Z,7.17
2022-12-09T14:04:54.184Z,8.80
2022-12-09T14:07:37.016Z,6.47
2022-12-09T14:10:04.084Z,8.57
2022-12-09T14:12:32.540Z,7.83
2022-12-09T14:15:05.289Z,7.27
2022-12-09T14:17:33.764Z,7.53
2022-12-09T14:20:21.321Z,7.37
2022-12-09T14:23:06.427Z,8.00
2022-12-09T14:25:35.963Z,7.37
2022-12-09T14:28:11.526Z,8.60
2022-12-09T14:30:52.180Z,9.20
2022-12-09T14:33:30.803Z,7.90
2022-12-09T14:36:15.692Z,7.93
2022-12-09T14:39:23.087Z,7.40
2022-12-09T14:41:49.305Z,8.53
2022-12-09T14:44:40.570Z,8.50
2022-12-09T14:47:28.171Z,8.27
2022-12-09T14:49:56.066Z,7.23
2022-12-09T14:52:30.672Z,7.50
2022-12-09T14:55:05.033Z,7.63
2022-12-09T14:57:41.458Z,7.30
2022-12-09T15:00:35.489Z,9.50
2022-12-09T15:06:02.740Z,8.53
2022-12-09T15:08:32.088Z,7.83
2022-12-09T15:11:01.690Z,8.33
2022-12-09T15:13:30.716Z,8.13
2022-12-09T15:15:57.482Z,8.30
2022-12-09T15:18:37.595Z,7.70
2022-12-09T15:21:07.868Z,7.70
2022-12-09T15:23:40.177Z,7.90
2022-12-09T15:26:28.905Z,8.47
2022-12-09T15:28:56.788Z,8.70
2022-12-09T15:31:26.823Z,16.50
2022-12-09T15:33:56.298Z,15.03
2022-12-09T15:36:34.371Z,9.00
2022-12-09T15:39:08.419Z,11.03
2022-12-09T15:42:01.652Z,11.67
2022-12-09T15:44:51.692Z,7.60
2022-12-09T15:47:25.981Z,7.30
2022-12-09T15:50:03.731Z,7.70
2022-12-09T15:52:39.089Z,7.70
2022-12-09T15:55:11.824Z,7.87
2022-12-09T15:57:40.029Z,10.13
2022-12-09T16:00:07.501Z,7.53
2022-12-09T16:02:39.411Z,7.90
2022-12-09T16:05:09.418Z,7.40
2022-12-09T16:07:37.072Z,7.93
2022-12-09T16:10:03.611Z,8.07
2022-12-09T16:12:32.502Z,8.63
2022-12-09T16:14:59.496Z,7.50
2022-12-09T16:17:31.904Z,8.30
2022-12-09T16:19:59.052Z,8.10
2022-12-09T16:22:30.185Z,8.53
2022-12-09T16:25:21.858Z,9.17
2022-12-09T16:27:55.780Z,8.70
2022-12-09T16:30:25.944Z,9.17
2022-12-09T16:32:57.021Z,9.33
2022-12-09T16:35:28.332Z,9.50
2022-12-09T16:37:57.713Z,9.53
2022-12-09T16:40:24.273Z,9.57
2022-12-09T16:42:56.481Z,10.30
2022-12-09T16:45:31.888Z,11.67
2022-12-09T16:47:59.647Z,11.63
2022-12-09T16:50:30.363Z,12.93
2022-12-09T16:53:02.440Z,13.00
2022-12-09T16:55:30.930Z,13.43
2022-12-09T16:57:59.209Z,12.67
2022-12-09T17:00:26.179Z,12.70
2022-12-09T17:03:01.557Z,13.90
2022-12-09T17:05:28.441Z,15.43
2022-12-09T17:07:55.665Z,15.10
2022-12-09T17:10:22.590Z,15.20
2022-12-09T17:12:49.250Z,15.17
2022-12-09T17:15:18.561Z,14.37
2022-12-09T17:17:49.096Z,13.27
2022-12-09T17:20:16.347Z,12.53
2022-12-09T17:22:43.125Z,12.10
2022-12-09T17:25:10.390Z,13.77
2022-12-09T17:27:37.547Z,13.33
2022-12-09T17:30:05.195Z,12.13
2022-12-09T17:32:31.806Z,13.13
2022-12-09T17:34:58.681Z,12.00
2022-12-09T17:37:25.346Z,12.27
2022-12-09T17:39:56.838Z,12.10
2022-12-09T17:42:26.698Z,11.03
2022-12-09T17:44:53.286Z,12.57
2022-12-09T17:47:19.937Z,12.50
2022-12-09T17:49:46.767Z,13.67
2022-12-09T17:52:14.143Z,13.43
2022-12-09T17:54:40.782Z,13.53
2022-12-09T17:57:07.409Z,15.53
2022-12-09T17:59:34.082Z,17.13
2022-12-09T18:02:03.381Z,19.27
2022-12-09T18:04:31.356Z,20.40
2022-12-09T18:06:58.101Z,16.43
2022-12-09T18:09:24.858Z,15.47
2022-12-09T18:11:51.877Z,19.57
2022-12-09T18:14:20.418Z,21.23
2022-12-09T18:16:48.906Z,21.00
2022-12-09T18:19:17.460Z,20.30
2022-12-09T18:21:45.032Z,20.27
2022-12-09T18:24:12.674Z,19.37
2022-12-09T18:26:42.039Z,18.23
2022-12-09T18:29:10.488Z,17.63
2022-12-09T18:31:37.376Z,16.57
2022-12-09T18:34:04.116Z,17.30
2022-12-09T18:36:31.064Z,16.80
2022-12-09T18:39:01.534Z,16.57
2022-12-09T18:41:30.806Z,15.23
2022-12-09T18:43:59.597Z,15.97
2022-12-09T18:46:29.381Z,15.23
2022-12-09T18:49:05.025Z,15.83
2022-12-09T18:51:32.699Z,16.43
2022-12-09T18:54:00.903Z,16.47
2022-12-09T18:56:28.601Z,15.90
2022-12-09T18:59:11.528Z,16.60
2022-12-09T19:01:43.758Z,17.40
2022-12-09T19:04:21.731Z,17.70
2022-12-09T19:06:50.699Z,17.63
2022-12-09T19:09:26.583Z,15.90
2022-12-09T19:11:53.467Z,15.97
2022-12-09T19:14:21.783Z,16.30
2022-12-09T19:16:49.189Z,17.87
2022-12-09T19:19:18.474Z,16.00
2022-12-09T19:21:45.939Z,17.23
2022-12-09T19:24:15.840Z,16.40
2022-12-09T19:26:42.975Z,17.60
2022-12-09T19:29:10.646Z,17.30
2022-12-09T19:31:43.045Z,17.07
2022-12-09T19:34:15.996Z,18.37
2022-12-09T19:36:44.500Z,18.93
2022-12-09T19:39:16.426Z,18.43
2022-12-09T19:41:44.586Z,17.60
2022-12-09T19:44:21.618Z,17.33
2022-12-09T19:46:53.900Z,17.87
2022-12-09T19:49:21.839Z,17.33
2022-12-09T19:51:49.594Z,17.77
2022-12-09T19:54:16.725Z,17.37
2022-12-09T19:56:44.320Z,17.30
2022-12-09T19:59:11.908Z,16.37
2022-12-09T20:01:41.986Z,16.47
2022-12-09T20:07:08.601Z,15.73
2022-12-09T20:09:36.850Z,17.00
2022-12-09T20:12:04.189Z,17.27
2022-12-09T20:14:33.234Z,16.97
2022-12-09T20:16:59.888Z,16.83
2022-12-09T20:19:26.525Z,17.27
2022-12-09T20:21:53.576Z,17.13
2022-12-09T20:24:20.381Z,16.63
2022-12-09T20:26:47.010Z,16.63
2022-12-09T20:29:13.723Z,17.20
2022-12-09T20:31:42.551Z,17.50
2022-12-09T20:34:14.952Z,18.37
2022-12-09T20:36:43.553Z,17.20
2022-12-09T20:39:19.380Z,18.13
2022-12-09T20:41:47.805Z,17.67
2022-12-09T20:44:15.916Z,17.40
2022-12-09T20:46:48.426Z,16.67
2022-12-09T20:49:15.123Z,18.47
2022-12-09T20:51:45.064Z,19.23
2022-12-09T20:54:11.936Z,21.83
2022-12-09T20:56:38.803Z,24.00
2022-12-09T20:59:06.643Z,23.50
2022-12-09T21:01:34.795Z,20.00
2022-12-09T21:04:03.238Z,20.00
2022-12-09T21:06:33.352Z,18.90
2022-12-09T21:09:05.279Z,18.17
2022-12-09T21:11:32.488Z,17.97
2022-12-09T21:14:01.457Z,19.23
2022-12-09T21:16:33.630Z,18.13
2022-12-09T21:19:02.467Z,19.73
2022-12-09T21:21:31.878Z,18.50
2022-12-09T21:23:59.709Z,17.73
2022-12-09T21:26:27.497Z,17.70
2022-12-09T21:28:54.374Z,17.93
2022-12-09T21:31:26.463Z,19.03
2022-12-09T21:33:55.206Z,18.33
2022-12-09T21:36:24.896Z,18.47
2022-12-09T21:38:52.593Z,17.07
2022-12-09T21:41:22.188Z,18.83
2022-12-09T21:43:48.898Z,18.23
2022-12-09T21:46:20.887Z,20.43
2022-12-09T21:48:52.020Z,19.93
2022-12-09T21:51:19.963Z,20.47
2022-12-09T21:53:47.577Z,17.50
2022-12-09T21:56:19.923Z,17.80
2022-12-09T21:58:49.023Z,17.17
2022-12-09T22:01:22.087Z,17.00
2022-12-09T22:03:49.785Z,15.60
2022-12-09T22:06:17.642Z,16.23
2022-12-09T22:08:44.619Z,16.30
2022-12-09T22:11:16.652Z,16.57
2022-12-09T22:13:43.770Z,16.67
2022-12-09T22:16:13.276Z,16.07
2022-12-09T22:18:41.736Z,16.63
2022-12-09T22:21:28.026Z,15.97
2022-12-09T22:23:57.147Z,15.70
2022-12-09T22:26:24.227Z,14.37
2022-12-09T22:28:52.499Z,15.50
2022-12-09T22:31:26.477Z,15.80
2022-12-09T22:33:55.634Z,14.60
2022-12-09T22:36:22.971Z,15.10
2022-12-09T22:38:50.254Z,16.13
2022-12-09T22:41:22.168Z,16.77
2022-12-09T22:43:50.113Z,15.77
2022-12-09T22:46:21.402Z,15.60
2022-12-09T22:48:48.553Z,15.77
2022-12-09T22:51:27.751Z,15.77
2022-12-09T22:53:55.871Z,15.63
2022-12-09T22:56:24.347Z,15.27
2022-12-09T22:58:51.635Z,15.70
2022-12-09T23:01:22.053Z,15.10
2022-12-09T23:03:49.071Z,15.60
2022-12-09T23:06:15.728Z,15.27
2022-12-09T23:08:44.127Z,15.93
2022-12-09T23:11:14.791Z,15.10
2022-12-09T23:13:41.716Z,15.37
2022-12-09T23:16:12.299Z,15.73
2022-12-09T23:18:39.603Z,15.90
2022-12-09T23:21:09.401Z,15.20
2022-12-09T23:23:36.461Z,15.50
2022-12-09T23:26:09.589Z,15.83
2022-12-09T23:28:40.850Z,15.27
2022-12-09T23:31:09.972Z,15.77
2022-12-09T23:33:38.669Z,15.00
2022-12-09T23:36:11.711Z,18.70
2022-12-09T23:38:38.470Z,20.23
2022-12-09T23:41:06.016Z,18.23
2022-12-09T23:43:34.468Z,17.40
2022-12-09T23:46:04.638Z,16.93
2022-12-09T23:48:32.068Z,16.07
2022-12-09T23:51:00.101Z,17.20
2022-12-09T23:53:26.882Z,16.30
2022-12-09T23:55:53.550Z,15.47
2022-12-09T23:58:20.174Z,14.10
